createdAt,value
2019-03-18T00:00:14.076Z,6.00
2019-03-18T00:01:14.034Z,5.95
2019-03-18T00:05:14.231Z,5.88
2019-03-18T00:06:14.127Z,5.94
2019-03-18T00:07:13.866Z,5.94
2019-03-18T00:08:13.884Z,5.94
2019-03-18T00:09:14.561Z,5.91
2019-03-18T00:10:14.004Z,6.00
2019-03-18T00:12:14.168Z,5.94
2019-03-18T00:13:14.098Z,5.90
2019-03-18T00:14:13.704Z,5.90
2019-03-18T00:15:13.756Z,5.93
2019-03-18T00:16:13.641Z,5.93
2019-03-18T00:18:13.907Z,5.85
2019-03-18T00:20:13.647Z,5.82
2019-03-18T00:21:13.525Z,5.90
2019-03-18T00:22:13.486Z,5.82
2019-03-18T00:23:13.473Z,5.87
2019-03-18T00:25:13.667Z,5.80
2019-03-18T00:26:13.501Z,5.90
2019-03-18T00:27:13.376Z,5.94
2019-03-18T00:28:14.182Z,5.93
2019-03-18T00:30:13.291Z,5.84
2019-03-18T00:31:13.260Z,5.80
2019-03-18T00:32:13.539Z,5.91
2019-03-18T00:33:13.321Z,5.85
2019-03-18T00:34:13.297Z,6.02
2019-03-18T00:35:13.269Z,5.97
2019-03-18T00:36:13.148Z,5.94
2019-03-18T00:37:13.143Z,5.93
2019-03-18T00:38:13.390Z,5.91
2019-03-18T00:39:13.066Z,5.94
2019-03-18T00:40:13.049Z,5.90
2019-03-18T00:41:13.008Z,5.84
2019-03-18T00:42:12.990Z,5.84
2019-03-18T00:43:12.971Z,5.93
2019-03-18T00:44:13.244Z,5.94
2019-03-18T00:46:13.260Z,5.93
2019-03-18T00:47:12.861Z,5.95
2019-03-18T00:49:12.806Z,5.90
2019-03-18T00:50:12.778Z,5.88
2019-03-18T00:51:13.089Z,5.94
2019-03-18T00:52:13.152Z,5.87
2019-03-18T00:53:13.405Z,5.95
2019-03-18T00:54:12.687Z,5.97
2019-03-18T00:56:13.311Z,5.87
2019-03-18T00:57:13.427Z,5.84
2019-03-18T00:58:13.338Z,5.87
2019-03-18T00:59:12.560Z,5.82
2019-03-18T01:00:12.650Z,5.72
2019-03-18T01:01:12.607Z,5.79
2019-03-18T01:02:12.562Z,5.76
2019-03-18T01:03:12.755Z,5.79
2019-03-18T01:04:12.851Z,5.79
2019-03-18T01:05:12.410Z,5.76
2019-03-18T01:07:12.700Z,5.67
2019-03-18T01:08:12.328Z,5.69
2019-03-18T01:09:12.426Z,5.73
2019-03-18T01:10:12.577Z,5.72
2019-03-18T01:11:12.267Z,5.61
2019-03-18T01:12:12.233Z,5.70
2019-03-18T01:13:13.153Z,5.70
2019-03-18T01:14:12.242Z,5.79
2019-03-18T01:15:12.184Z,5.73
2019-03-18T01:16:13.227Z,5.67
2019-03-18T01:18:12.786Z,5.77
2019-03-18T01:19:12.209Z,5.76
2019-03-18T01:20:12.793Z,5.87
2019-03-18T01:21:12.099Z,5.75
2019-03-18T01:22:12.039Z,5.90
2019-03-18T01:23:11.967Z,5.84
2019-03-18T01:24:12.197Z,5.80
2019-03-18T01:25:11.906Z,5.76
2019-03-18T01:26:11.880Z,5.72
2019-03-18T01:27:11.851Z,5.90
2019-03-18T01:28:11.829Z,5.87
2019-03-18T01:29:11.876Z,5.97
2019-03-18T01:30:11.789Z,5.98
2019-03-18T01:31:12.107Z,6.09
2019-03-18T01:32:11.730Z,5.95
2019-03-18T01:33:11.710Z,5.95
2019-03-18T01:34:11.680Z,5.90
2019-03-18T01:35:11.663Z,5.95
2019-03-18T01:37:11.636Z,6.00
2019-03-18T01:38:11.893Z,5.90
2019-03-18T01:39:11.661Z,5.93
2019-03-18T01:41:11.585Z,5.84
2019-03-18T01:42:11.541Z,5.82
2019-03-18T01:44:11.731Z,5.77
2019-03-18T01:45:11.405Z,5.79
2019-03-18T01:46:11.433Z,5.72
2019-03-18T01:47:11.376Z,5.70
2019-03-18T01:48:11.326Z,5.67
2019-03-18T01:49:11.746Z,5.65
2019-03-18T01:50:11.610Z,5.61
2019-03-18T01:51:11.656Z,5.75
2019-03-18T01:52:11.259Z,5.67
2019-03-18T01:53:11.249Z,5.52
2019-03-18T01:54:11.269Z,5.57
2019-03-18T01:55:11.318Z,5.58
2019-03-18T01:56:11.663Z,5.58
2019-03-18T01:57:11.223Z,5.58
2019-03-18T01:59:11.303Z,5.72
2019-03-18T02:00:11.211Z,5.69
2019-03-18T02:01:11.005Z,5.72
2019-03-18T02:02:10.977Z,5.65
2019-03-18T02:03:11.011Z,5.70
2019-03-18T02:04:11.383Z,5.80
2019-03-18T02:06:11.534Z,5.66
2019-03-18T02:10:11.427Z,5.73
2019-03-18T02:11:11.018Z,5.70
2019-03-18T02:12:11.090Z,5.67
2019-03-18T02:13:10.810Z,5.72
2019-03-18T02:14:10.961Z,5.65
2019-03-18T02:15:10.650Z,5.66
2019-03-18T02:16:10.625Z,5.69
2019-03-18T02:17:10.629Z,5.66
2019-03-18T02:18:10.879Z,5.58
2019-03-18T02:19:10.556Z,5.72
2019-03-18T02:20:10.515Z,5.69
2019-03-18T02:21:10.504Z,5.67
2019-03-18T02:22:10.463Z,5.67
2019-03-18T02:23:10.879Z,5.62
2019-03-18T02:24:10.819Z,5.51
2019-03-18T02:26:10.367Z,5.52
2019-03-18T02:27:10.343Z,5.61
2019-03-18T02:28:10.330Z,5.59
2019-03-18T02:29:10.290Z,5.51
2019-03-18T02:30:10.518Z,5.58
2019-03-18T02:31:10.473Z,5.55
2019-03-18T02:33:10.185Z,5.57
2019-03-18T02:34:10.327Z,5.51
2019-03-18T02:35:10.244Z,5.44
2019-03-18T02:36:10.489Z,5.41
2019-03-18T02:37:10.301Z,5.34
2019-03-18T02:38:10.123Z,5.39
2019-03-18T02:39:10.058Z,5.30
2019-03-18T02:41:10.383Z,5.34
2019-03-18T02:42:10.115Z,5.24
2019-03-18T02:43:10.388Z,5.11
2019-03-18T02:45:10.135Z,5.22
2019-03-18T02:46:11.019Z,5.22
2019-03-18T02:47:10.200Z,5.27
2019-03-18T02:48:09.808Z,5.18
2019-03-18T02:49:09.780Z,5.21
2019-03-18T02:50:10.188Z,5.24
2019-03-18T02:51:09.770Z,5.18
2019-03-18T02:53:09.719Z,5.15
2019-03-18T02:54:09.664Z,5.12
2019-03-18T02:55:09.666Z,5.11
2019-03-18T02:56:09.618Z,4.98
2019-03-18T02:57:09.990Z,5.03
2019-03-18T02:58:09.552Z,5.06
2019-03-18T02:59:09.541Z,5.11
2019-03-18T03:01:09.472Z,5.11
2019-03-18T03:02:09.528Z,5.07
2019-03-18T03:03:09.433Z,5.09
2019-03-18T03:04:09.659Z,5.09
2019-03-18T03:05:09.371Z,5.16
2019-03-18T03:06:09.400Z,5.09
2019-03-18T03:07:09.463Z,5.16
2019-03-18T03:08:09.322Z,5.12
2019-03-18T03:09:09.274Z,5.14
2019-03-18T03:10:09.248Z,5.24
2019-03-18T03:11:09.518Z,5.18
2019-03-18T03:14:09.248Z,5.09
2019-03-18T03:15:09.124Z,5.15
2019-03-18T03:16:20.378Z,5.18
2019-03-18T03:17:09.067Z,5.22
2019-03-18T03:18:09.347Z,5.16
2019-03-18T03:19:09.019Z,5.16
2019-03-18T03:20:08.987Z,5.09
2019-03-18T03:21:08.963Z,5.19
2019-03-18T03:22:08.940Z,5.21
2019-03-18T03:23:08.925Z,5.18
2019-03-18T03:24:09.150Z,5.19
2019-03-18T03:26:08.835Z,5.21
2019-03-18T03:27:08.812Z,5.16
2019-03-18T03:28:08.783Z,5.16
2019-03-18T03:29:08.756Z,5.12
2019-03-18T03:30:09.098Z,5.27
2019-03-18T03:31:08.709Z,5.14
2019-03-18T03:32:08.679Z,5.15
2019-03-18T03:33:08.774Z,5.16
2019-03-18T03:34:13.179Z,5.11
2019-03-18T03:35:08.603Z,5.09
2019-03-18T03:36:08.982Z,5.11
2019-03-18T03:37:08.550Z,5.14
2019-03-18T03:38:08.548Z,5.04
2019-03-18T03:39:08.610Z,5.15
2019-03-18T03:40:08.500Z,5.12
2019-03-18T03:41:08.454Z,5.09
2019-03-18T03:42:08.670Z,5.07
2019-03-18T03:45:08.347Z,4.98
2019-03-18T03:46:08.321Z,5.03
2019-03-18T03:47:08.301Z,5.04
2019-03-18T03:48:08.518Z,5.00
2019-03-18T03:49:08.342Z,5.09
2019-03-18T03:50:08.216Z,5.03
2019-03-18T03:52:08.162Z,5.00
2019-03-18T03:53:08.140Z,5.03
2019-03-18T03:54:08.469Z,5.01
2019-03-18T03:55:08.090Z,5.07
2019-03-18T03:56:08.201Z,5.12
2019-03-18T03:57:08.059Z,5.11
2019-03-18T03:58:08.020Z,5.15
2019-03-18T03:59:08.058Z,5.19
2019-03-18T04:00:08.212Z,5.15
2019-03-18T04:01:07.945Z,5.25
2019-03-18T04:03:07.887Z,5.24
2019-03-18T04:04:07.856Z,5.19
2019-03-18T04:05:07.837Z,5.29
2019-03-18T04:06:07.808Z,5.30
2019-03-18T04:07:08.088Z,5.30
2019-03-18T04:08:07.763Z,5.34
2019-03-18T04:09:07.730Z,5.25
2019-03-18T04:10:07.822Z,5.32
2019-03-18T04:12:07.657Z,5.32
2019-03-18T04:13:07.681Z,5.34
2019-03-18T04:14:07.856Z,5.24
2019-03-18T04:15:07.585Z,5.32
2019-03-18T04:16:07.571Z,5.22
2019-03-18T04:19:07.477Z,5.24
2019-03-18T04:20:07.457Z,5.19
2019-03-18T04:21:07.724Z,5.15
2019-03-18T04:22:07.405Z,5.16
2019-03-18T04:23:07.473Z,5.19
2019-03-18T04:24:07.368Z,5.21
2019-03-18T04:25:07.324Z,5.15
2019-03-18T04:26:07.292Z,5.18
2019-03-18T04:27:07.270Z,5.15
2019-03-18T04:28:07.591Z,5.18
2019-03-18T04:31:07.184Z,5.19
2019-03-18T04:32:07.140Z,5.34
2019-03-18T04:33:07.112Z,5.29
2019-03-18T04:34:07.090Z,5.32
2019-03-18T04:35:07.319Z,5.22
2019-03-18T04:36:07.035Z,5.27
2019-03-18T04:37:07.014Z,5.29
2019-03-18T04:39:07.161Z,5.25
2019-03-18T04:40:06.934Z,5.30
2019-03-18T04:41:06.926Z,5.29
2019-03-18T04:42:07.187Z,5.33
2019-03-18T04:43:06.864Z,5.34
2019-03-18T04:44:06.848Z,5.40
2019-03-18T04:45:06.824Z,5.34
2019-03-18T04:46:06.782Z,5.39
2019-03-18T04:47:14.184Z,5.32
2019-03-18T04:49:06.803Z,5.34
2019-03-18T04:50:06.677Z,5.30
2019-03-18T04:51:06.678Z,5.34
2019-03-18T04:52:06.625Z,5.39
2019-03-18T04:53:11.659Z,5.32
2019-03-18T04:54:06.891Z,5.33
2019-03-18T04:55:06.553Z,5.37
2019-03-18T04:56:06.528Z,5.41
2019-03-18T04:58:06.488Z,5.44
2019-03-18T04:59:06.451Z,5.44
2019-03-18T05:00:06.731Z,5.48
2019-03-18T05:01:06.399Z,5.51
2019-03-18T05:03:06.354Z,5.43
2019-03-18T05:05:06.294Z,5.58
2019-03-18T05:06:06.531Z,5.61
2019-03-18T05:07:06.253Z,5.58
2019-03-18T05:08:06.224Z,5.57
2019-03-18T05:10:06.168Z,5.52
2019-03-18T05:11:06.142Z,5.50
2019-03-18T05:12:06.419Z,5.54
2019-03-18T05:13:06.191Z,5.58
2019-03-18T05:14:06.075Z,5.59
2019-03-18T05:15:06.060Z,5.69
2019-03-18T05:17:06.003Z,5.69
2019-03-18T05:18:06.271Z,5.72
2019-03-18T05:19:05.950Z,5.69
2019-03-18T05:20:05.931Z,5.70
2019-03-18T05:21:05.894Z,5.72
2019-03-18T05:22:05.897Z,5.67
2019-03-18T05:23:05.843Z,5.67
2019-03-18T05:24:05.878Z,5.70
2019-03-18T05:25:06.133Z,5.72
2019-03-18T05:27:06.240Z,5.75
2019-03-18T05:28:05.887Z,5.62
2019-03-18T05:32:06.597Z,5.69
2019-03-18T05:33:06.434Z,5.66
2019-03-18T05:34:06.013Z,5.76
2019-03-18T05:35:06.488Z,5.79
2019-03-18T05:36:05.512Z,5.70
2019-03-18T05:37:05.510Z,5.79
2019-03-18T05:38:05.777Z,5.76
2019-03-18T05:39:05.438Z,5.73
2019-03-18T05:40:05.430Z,5.65
2019-03-18T05:41:05.392Z,5.76
2019-03-18T05:42:05.363Z,5.76
2019-03-18T05:43:05.342Z,5.90
2019-03-18T05:44:07.950Z,5.79
2019-03-18T05:45:05.283Z,5.80
2019-03-18T05:46:05.268Z,5.75
2019-03-18T05:47:05.235Z,5.70
2019-03-18T05:48:05.212Z,5.75
2019-03-18T05:49:05.186Z,5.77
2019-03-18T05:50:05.460Z,5.76
2019-03-18T05:51:05.138Z,5.91
2019-03-18T05:53:05.100Z,5.82
2019-03-18T05:54:05.055Z,5.77
2019-03-18T05:55:05.047Z,5.84
2019-03-18T05:56:05.304Z,5.91
2019-03-18T05:57:04.982Z,5.76
2019-03-18T05:58:04.954Z,5.76
2019-03-18T05:59:04.927Z,5.79
2019-03-18T06:00:04.942Z,5.80
2019-03-18T06:01:04.889Z,5.84
2019-03-18T06:02:05.163Z,5.77
2019-03-18T06:03:04.827Z,5.76
2019-03-18T06:04:04.808Z,5.80
2019-03-18T06:05:04.777Z,5.82
2019-03-18T06:06:04.769Z,5.77
2019-03-18T06:07:04.732Z,5.79
2019-03-18T06:08:04.975Z,5.77
2019-03-18T06:09:04.708Z,5.79
2019-03-18T06:10:04.695Z,5.87
2019-03-18T06:11:04.627Z,5.84
2019-03-18T06:12:05.260Z,5.93
2019-03-18T06:13:04.969Z,5.95
2019-03-18T06:14:04.850Z,5.93
2019-03-18T06:15:04.837Z,5.85
2019-03-18T06:16:04.563Z,5.79
2019-03-18T06:17:04.788Z,5.72
2019-03-18T06:18:04.625Z,5.59
2019-03-18T06:19:10.815Z,5.55
2019-03-18T06:21:05.113Z,5.59
2019-03-18T06:22:05.353Z,5.41
2019-03-18T06:23:04.779Z,5.37
2019-03-18T06:24:07.856Z,5.41
2019-03-18T06:25:05.670Z,5.40
2019-03-18T06:26:07.377Z,5.36
2019-03-18T06:28:06.753Z,5.36
2019-03-18T06:29:05.787Z,5.33
2019-03-18T06:30:06.309Z,5.36
2019-03-18T06:33:04.110Z,5.47
2019-03-18T06:35:14.781Z,5.62
2019-03-18T06:36:04.157Z,5.59
2019-03-18T06:38:03.984Z,5.62
2019-03-18T06:39:03.936Z,5.65
2019-03-18T06:40:03.903Z,5.62
2019-03-18T06:41:03.889Z,5.70
2019-03-18T06:42:04.111Z,5.76
2019-03-18T06:43:03.827Z,5.76
2019-03-18T06:44:03.802Z,5.67
2019-03-18T06:45:03.786Z,5.73
2019-03-18T06:46:03.754Z,5.62
2019-03-18T06:47:03.723Z,5.72
2019-03-18T06:48:05.399Z,5.72
2019-03-18T06:49:03.799Z,5.80
2019-03-18T06:50:03.651Z,5.91
2019-03-18T06:51:03.627Z,5.80
2019-03-18T06:52:03.651Z,5.91
2019-03-18T06:53:03.583Z,5.90
2019-03-18T06:54:03.853Z,5.94
2019-03-18T06:55:03.609Z,5.93
2019-03-18T06:56:03.499Z,6.00
2019-03-18T06:57:03.476Z,6.02
2019-03-18T06:58:03.460Z,6.05
2019-03-18T06:59:03.425Z,6.09
2019-03-18T07:01:03.731Z,6.09
2019-03-18T07:02:03.352Z,6.09
2019-03-18T07:03:03.330Z,6.11
2019-03-18T07:04:03.298Z,6.08
2019-03-18T07:05:03.282Z,6.09
2019-03-18T07:06:03.251Z,6.08
2019-03-18T07:07:03.246Z,6.05
2019-03-18T07:08:03.502Z,6.09
2019-03-18T07:09:03.178Z,6.12
2019-03-18T07:10:03.165Z,6.16
2019-03-18T07:11:03.132Z,5.97
2019-03-18T07:12:03.106Z,5.91
2019-03-18T07:15:03.357Z,5.82
2019-03-18T07:16:03.027Z,5.73
2019-03-18T07:17:02.992Z,5.77
2019-03-18T07:18:02.962Z,5.80
2019-03-18T07:19:02.942Z,5.84
2019-03-18T07:20:02.922Z,5.72
2019-03-18T07:22:02.887Z,5.82
2019-03-18T07:23:02.844Z,5.90
2019-03-18T07:24:03.041Z,5.98
2019-03-18T07:25:02.838Z,5.91
2019-03-18T07:26:02.774Z,5.94
2019-03-18T07:27:03.065Z,6.05
2019-03-18T07:28:02.807Z,5.95
2019-03-18T07:30:02.711Z,5.98
2019-03-18T07:31:02.643Z,5.97
2019-03-18T07:32:02.621Z,5.97
2019-03-18T07:33:02.914Z,6.06
2019-03-18T07:34:02.583Z,6.12
2019-03-18T07:35:02.542Z,5.95
2019-03-18T07:36:02.519Z,5.97
2019-03-18T07:37:02.494Z,6.08
2019-03-18T07:38:02.470Z,6.11
2019-03-18T07:39:02.748Z,6.38
2019-03-18T07:40:02.424Z,6.55
2019-03-18T07:41:02.402Z,6.56
2019-03-18T07:42:02.372Z,6.43
2019-03-18T07:43:02.356Z,6.32
2019-03-18T07:44:02.355Z,6.27
2019-03-18T07:45:02.612Z,6.13
2019-03-18T07:46:02.584Z,6.24
2019-03-18T07:47:02.259Z,6.43
2019-03-18T07:48:02.230Z,6.49
2019-03-18T07:49:02.205Z,6.47
2019-03-18T07:50:02.285Z,6.35
2019-03-18T07:51:02.415Z,6.18
2019-03-18T07:52:02.138Z,6.13
2019-03-18T07:54:02.097Z,6.46
2019-03-18T07:57:02.312Z,6.42
2019-03-18T07:59:01.971Z,6.40
2019-03-18T08:00:02.720Z,6.55
2019-03-18T08:01:02.039Z,6.64
2019-03-18T08:02:01.899Z,6.64
2019-03-18T08:03:03.454Z,6.60
2019-03-18T08:04:01.856Z,6.70
2019-03-18T08:05:01.842Z,6.67
2019-03-18T08:06:01.840Z,6.68
2019-03-18T08:09:02.039Z,6.64
2019-03-18T08:10:01.808Z,6.50
2019-03-18T08:11:01.686Z,6.53
2019-03-18T08:12:01.684Z,6.52
2019-03-18T08:13:01.650Z,6.43
2019-03-18T08:14:01.668Z,6.45
2019-03-18T08:15:02.908Z,6.43
2019-03-18T08:16:01.569Z,6.45
2019-03-18T08:17:01.547Z,6.40
2019-03-18T08:18:01.549Z,6.42
2019-03-18T08:19:01.498Z,6.56
2019-03-18T08:20:03.291Z,6.50
2019-03-18T08:22:02.103Z,6.64
2019-03-18T08:23:01.419Z,6.73
2019-03-18T08:24:01.394Z,6.68
2019-03-18T08:25:01.374Z,6.86
2019-03-18T08:26:01.349Z,6.99
2019-03-18T08:27:01.331Z,7.19
2019-03-18T08:28:01.298Z,7.29
2019-03-18T08:29:01.564Z,7.33
2019-03-18T08:30:01.255Z,7.34
2019-03-18T08:31:01.273Z,7.15
2019-03-18T08:32:01.206Z,7.15
2019-03-18T08:33:01.212Z,7.21
2019-03-18T08:34:01.168Z,7.06
2019-03-18T08:35:01.427Z,7.19
2019-03-18T08:36:01.135Z,7.36
2019-03-18T08:37:01.086Z,7.39
2019-03-18T08:38:01.116Z,7.18
2019-03-18T08:39:01.056Z,7.13
2019-03-18T08:40:01.009Z,7.06
2019-03-18T08:41:01.256Z,7.06
2019-03-18T08:42:00.978Z,7.04
2019-03-18T08:43:00.940Z,7.01
2019-03-18T08:44:00.914Z,7.00
2019-03-18T08:45:01.001Z,6.86
2019-03-18T08:46:00.889Z,7.00
2019-03-18T08:47:01.153Z,7.07
2019-03-18T08:48:00.856Z,7.00
2019-03-18T08:49:00.805Z,7.03
2019-03-18T08:50:00.781Z,7.04
2019-03-18T08:51:00.767Z,7.18
2019-03-18T08:52:00.744Z,7.22
2019-03-18T08:53:01.011Z,7.16
2019-03-18T08:54:00.689Z,7.31
2019-03-18T08:55:00.673Z,7.54
2019-03-18T08:56:00.665Z,7.76
2019-03-18T08:57:00.622Z,7.68
2019-03-18T08:59:00.858Z,7.47
2019-03-18T09:00:00.629Z,7.54
2019-03-18T09:01:00.529Z,7.83
2019-03-18T09:03:00.489Z,7.57
2019-03-18T09:04:00.465Z,8.20
2019-03-18T09:05:00.699Z,7.81
2019-03-18T09:06:00.461Z,7.91
2019-03-18T09:07:00.408Z,7.58
2019-03-18T09:08:00.371Z,7.39
2019-03-18T09:09:00.357Z,7.74
2019-03-18T09:10:00.419Z,7.73
2019-03-18T09:11:00.562Z,7.61
2019-03-18T09:12:00.299Z,7.49
2019-03-18T09:13:00.263Z,7.49
2019-03-18T09:14:00.251Z,7.37
2019-03-18T09:15:00.371Z,7.73
2019-03-18T09:16:00.640Z,7.94
2019-03-18T09:17:00.424Z,7.69
2019-03-18T09:18:00.202Z,7.73
2019-03-18T09:19:08.713Z,7.91
2019-03-18T09:20:00.359Z,7.98
2019-03-18T09:21:00.116Z,8.09
2019-03-18T09:22:00.102Z,8.35
2019-03-18T09:23:01.653Z,8.52
2019-03-18T09:24:00.120Z,8.29
2019-03-18T09:26:00.007Z,7.98
2019-03-18T09:28:00.316Z,7.84
2019-03-18T09:28:59.912Z,7.68
2019-03-18T09:31:00.390Z,7.61
2019-03-18T09:31:59.846Z,7.60
2019-03-18T09:32:59.831Z,7.50
2019-03-18T09:33:59.809Z,7.55
2019-03-18T09:34:59.780Z,7.61
2019-03-18T09:35:59.769Z,7.71
2019-03-18T09:37:00.043Z,7.81
2019-03-18T09:37:59.728Z,7.96
2019-03-18T09:38:59.698Z,7.94
2019-03-18T09:40:00.578Z,8.05
2019-03-18T09:41:00.174Z,8.13
2019-03-18T09:41:59.665Z,8.24
2019-03-18T09:42:59.623Z,8.38
2019-03-18T09:43:59.619Z,8.28
2019-03-18T09:44:59.598Z,8.24
2019-03-18T09:45:59.555Z,8.19
2019-03-18T09:46:59.540Z,8.29
2019-03-18T09:47:59.498Z,8.32
2019-03-18T09:49:59.539Z,8.14
2019-03-18T09:50:59.637Z,8.04
2019-03-18T09:51:59.463Z,7.99
2019-03-18T09:52:59.424Z,7.98
2019-03-18T09:53:59.451Z,7.95
2019-03-18T09:54:59.657Z,7.98
2019-03-18T09:55:59.402Z,8.01
2019-03-18T09:57:59.308Z,7.73
2019-03-18T09:58:59.290Z,7.77
2019-03-18T09:59:59.291Z,7.55
2019-03-18T10:00:59.854Z,7.60
2019-03-18T10:01:59.207Z,7.58
2019-03-18T10:02:59.501Z,7.61
2019-03-18T10:03:59.174Z,7.57
2019-03-18T10:04:59.243Z,7.58
2019-03-18T10:05:59.124Z,7.50
2019-03-18T10:06:59.115Z,7.54
2019-03-18T10:07:59.425Z,7.60
2019-03-18T10:08:59.083Z,7.69
2019-03-18T10:09:59.042Z,7.71
2019-03-18T10:10:59.040Z,7.71
2019-03-18T10:11:59.013Z,7.64
2019-03-18T10:12:58.966Z,7.68
2019-03-18T10:13:59.243Z,7.62
2019-03-18T10:14:58.933Z,7.74
2019-03-18T10:15:58.901Z,7.71
2019-03-18T10:17:09.036Z,7.71
2019-03-18T10:17:58.878Z,7.73
2019-03-18T10:18:58.842Z,7.80
2019-03-18T10:19:59.124Z,7.88
2019-03-18T10:20:58.790Z,7.95
2019-03-18T10:21:58.773Z,7.96
2019-03-18T10:22:58.805Z,8.09
2019-03-18T10:23:58.754Z,8.10
2019-03-18T10:24:58.823Z,8.02
2019-03-18T10:25:58.759Z,8.01
2019-03-18T10:26:58.972Z,7.94
2019-03-18T10:27:58.633Z,7.76
2019-03-18T10:28:58.603Z,7.19
2019-03-18T10:29:58.637Z,6.67
2019-03-18T10:30:58.556Z,5.67
2019-03-18T10:31:58.632Z,5.66
2019-03-18T10:32:58.542Z,5.37
2019-03-18T10:33:58.839Z,5.33
2019-03-18T10:34:58.468Z,5.30
2019-03-18T10:35:58.478Z,5.25
2019-03-18T10:36:58.420Z,5.27
2019-03-18T10:37:58.733Z,5.21
2019-03-18T10:38:58.365Z,5.25
2019-03-18T10:39:58.593Z,5.15
2019-03-18T10:41:58.297Z,5.01
2019-03-18T10:42:58.281Z,5.00
2019-03-18T10:43:58.258Z,5.01
2019-03-18T10:44:58.219Z,4.97
2019-03-18T10:45:58.516Z,5.09
2019-03-18T10:46:58.380Z,5.11
2019-03-18T10:47:58.156Z,5.32
2019-03-18T10:49:58.110Z,5.51
2019-03-18T10:50:58.094Z,5.55
2019-03-18T10:51:58.357Z,5.62
2019-03-18T10:52:58.476Z,5.67
2019-03-18T10:53:58.003Z,5.58
2019-03-18T10:54:58.240Z,5.32
2019-03-18T10:56:07.241Z,5.34
2019-03-18T10:56:57.946Z,5.57
2019-03-18T10:57:58.001Z,5.41
2019-03-18T10:58:58.147Z,5.44
2019-03-18T10:59:57.860Z,5.48
2019-03-18T11:00:58.450Z,5.58
2019-03-18T11:01:57.952Z,5.80
2019-03-18T11:02:57.817Z,5.75
2019-03-18T11:03:57.957Z,6.19
2019-03-18T11:04:58.114Z,6.92
2019-03-18T11:05:57.720Z,7.34
2019-03-18T11:06:57.693Z,7.64
2019-03-18T11:07:57.671Z,7.78
2019-03-18T11:08:57.657Z,7.94
2019-03-18T11:09:57.624Z,8.09
2019-03-18T11:10:57.947Z,8.06
2019-03-18T11:11:57.590Z,8.16
2019-03-18T11:12:57.558Z,8.19
2019-03-18T11:13:57.960Z,8.32
2019-03-18T11:14:57.508Z,8.67
2019-03-18T11:15:57.481Z,8.68
2019-03-18T11:16:58.353Z,8.68
2019-03-18T11:17:57.454Z,8.77
2019-03-18T11:18:57.419Z,9.11
2019-03-18T11:19:58.933Z,9.09
2019-03-18T11:20:57.397Z,9.15
2019-03-18T11:21:57.601Z,8.81
2019-03-18T11:22:57.661Z,8.47
2019-03-18T11:23:57.323Z,8.19
2019-03-18T11:26:57.286Z,7.68
2019-03-18T11:27:57.260Z,7.57
2019-03-18T11:28:57.233Z,7.57
2019-03-18T11:29:57.569Z,7.54
2019-03-18T11:30:57.198Z,6.16
2019-03-18T11:31:57.204Z,4.94
2019-03-18T11:32:57.248Z,3.96
2019-03-18T11:33:57.865Z,3.63
2019-03-18T11:34:57.499Z,3.56
2019-03-18T11:35:57.740Z,3.42
2019-03-18T11:36:57.072Z,3.45
2019-03-18T11:37:57.071Z,3.42
2019-03-18T11:38:57.407Z,3.44
2019-03-18T11:40:57.055Z,3.59
2019-03-18T11:41:57.278Z,3.55
2019-03-18T11:42:57.123Z,3.51
2019-03-18T11:43:56.928Z,3.44
2019-03-18T11:44:56.935Z,3.60
2019-03-18T11:45:56.876Z,3.60
2019-03-18T11:46:56.878Z,3.73
2019-03-18T11:47:57.381Z,3.78
2019-03-18T11:48:56.793Z,3.78
2019-03-18T11:49:56.786Z,4.03
2019-03-18T11:50:56.761Z,4.69
2019-03-18T11:51:56.749Z,5.24
2019-03-18T11:52:56.736Z,5.76
2019-03-18T11:53:56.670Z,6.21
2019-03-18T11:54:56.935Z,6.43
2019-03-18T11:55:56.613Z,6.61
2019-03-18T11:56:56.606Z,6.91
2019-03-18T11:57:56.588Z,7.29
2019-03-18T11:58:56.542Z,7.54
2019-03-18T11:59:56.523Z,7.94
2019-03-18T12:00:56.809Z,7.88
2019-03-18T12:01:56.482Z,7.52
2019-03-18T12:02:56.465Z,7.61
2019-03-18T12:03:56.455Z,8.12
2019-03-18T12:04:57.653Z,8.34
2019-03-18T12:05:56.457Z,8.37
2019-03-18T12:06:56.818Z,8.49
2019-03-18T12:07:56.353Z,8.72
2019-03-18T12:08:56.342Z,8.67
2019-03-18T12:09:56.328Z,8.52
2019-03-18T12:11:56.279Z,8.75
2019-03-18T12:12:56.522Z,8.78
2019-03-18T12:13:56.285Z,8.46
2019-03-18T12:14:56.347Z,7.95
2019-03-18T12:15:56.214Z,7.60
2019-03-18T12:17:56.301Z,7.26
2019-03-18T12:19:56.137Z,7.25
2019-03-18T12:20:56.160Z,7.03
2019-03-18T12:21:57.032Z,6.70
2019-03-18T12:22:56.122Z,6.64
2019-03-18T12:23:56.158Z,6.40
2019-03-18T12:24:56.279Z,6.13
2019-03-18T12:25:56.030Z,6.05
2019-03-18T12:26:55.985Z,6.03
2019-03-18T12:27:56.121Z,6.06
2019-03-18T12:28:56.256Z,5.98
2019-03-18T12:29:56.414Z,6.08
2019-03-18T12:30:55.912Z,6.08
2019-03-18T12:31:56.259Z,6.02
2019-03-18T12:32:56.059Z,6.18
2019-03-18T12:33:57.466Z,6.68
2019-03-18T12:34:55.823Z,7.42
2019-03-18T12:35:55.883Z,7.78
2019-03-18T12:36:56.046Z,7.91
2019-03-18T12:37:56.758Z,8.20
2019-03-18T12:38:55.853Z,8.34
2019-03-18T12:39:55.741Z,8.24
2019-03-18T12:40:55.742Z,8.21
2019-03-18T12:41:55.854Z,8.32
2019-03-18T12:42:55.658Z,8.50
2019-03-18T12:43:55.960Z,8.72
2019-03-18T12:44:55.639Z,8.71
2019-03-18T12:45:55.615Z,8.56
2019-03-18T12:46:55.639Z,8.70
2019-03-18T12:47:55.602Z,8.80
2019-03-18T12:48:55.607Z,8.88
2019-03-18T12:49:55.993Z,8.88
2019-03-18T12:50:56.793Z,8.77
2019-03-18T12:51:55.474Z,9.24
2019-03-18T12:52:55.459Z,9.04
2019-03-18T12:53:55.466Z,9.22
2019-03-18T12:54:55.412Z,9.47
2019-03-18T12:55:55.744Z,9.47
2019-03-18T12:56:55.435Z,9.41
2019-03-18T12:57:55.428Z,9.14
2019-03-18T12:58:55.352Z,9.06
2019-03-18T12:59:56.025Z,9.12
2019-03-18T13:00:55.363Z,9.01
2019-03-18T13:02:55.606Z,9.18
2019-03-18T13:03:55.254Z,9.50
2019-03-18T13:04:55.455Z,9.66
2019-03-18T13:05:55.609Z,9.52
2019-03-18T13:06:55.219Z,9.75
2019-03-18T13:07:55.387Z,10.24
2019-03-18T13:09:55.172Z,10.01
2019-03-18T13:10:55.376Z,9.99
2019-03-18T13:11:56.475Z,9.91
2019-03-18T13:12:55.264Z,10.06
2019-03-18T13:13:55.083Z,10.21
2019-03-18T13:14:55.373Z,10.27
2019-03-18T13:15:55.130Z,10.36
2019-03-18T13:16:55.045Z,10.85
2019-03-18T13:17:55.024Z,10.23
2019-03-18T13:18:55.095Z,10.09
2019-03-18T13:21:07.069Z,9.69
2019-03-18T13:21:55.264Z,9.48
2019-03-18T13:22:55.011Z,9.15
2019-03-18T13:23:55.002Z,8.93
2019-03-18T13:24:54.913Z,8.75
2019-03-18T13:25:54.906Z,8.59
2019-03-18T13:26:54.993Z,8.42
2019-03-18T13:27:55.330Z,8.41
2019-03-18T13:28:56.344Z,8.41
2019-03-18T13:29:54.829Z,8.41
2019-03-18T13:30:54.813Z,8.38
2019-03-18T13:31:54.832Z,8.35
2019-03-18T13:32:55.011Z,8.38
2019-03-18T13:33:55.310Z,8.83
2019-03-18T13:34:54.748Z,9.26
2019-03-18T13:35:54.719Z,9.63
2019-03-18T13:36:54.703Z,10.45
2019-03-18T13:37:54.755Z,10.31
2019-03-18T13:38:54.662Z,10.35
2019-03-18T13:39:54.642Z,10.64
2019-03-18T13:40:54.935Z,9.99
2019-03-18T13:41:54.645Z,9.45
2019-03-18T13:42:54.588Z,9.08
2019-03-18T13:43:54.567Z,9.01
2019-03-18T13:45:55.857Z,9.14
2019-03-18T13:46:54.821Z,9.42
2019-03-18T13:47:54.595Z,10.30
2019-03-18T13:48:54.480Z,10.78
2019-03-18T13:49:54.452Z,11.15
2019-03-18T13:50:54.432Z,10.43
2019-03-18T13:51:54.543Z,11.04
2019-03-18T13:52:54.402Z,11.11
2019-03-18T13:53:54.628Z,10.65
2019-03-18T13:54:54.358Z,9.94
2019-03-18T13:55:54.386Z,10.43
2019-03-18T13:56:54.342Z,11.08
2019-03-18T13:57:54.313Z,11.22
2019-03-18T13:59:54.729Z,11.27
2019-03-18T14:00:54.531Z,10.90
2019-03-18T14:01:55.564Z,10.30
2019-03-18T14:03:54.270Z,10.45
2019-03-18T14:04:54.248Z,10.34
2019-03-18T14:05:54.680Z,10.21
2019-03-18T14:06:54.755Z,10.06
2019-03-18T14:08:00.027Z,10.21
2019-03-18T14:09:54.193Z,9.80
2019-03-18T14:10:54.083Z,9.90
2019-03-18T14:11:55.387Z,9.72
2019-03-18T14:12:54.159Z,9.62
2019-03-18T14:14:54.009Z,9.27
2019-03-18T14:15:54.031Z,9.11
2019-03-18T14:16:53.978Z,8.60
2019-03-18T14:17:54.338Z,7.96
2019-03-18T14:18:53.944Z,7.84
2019-03-18T14:19:54.034Z,7.66
2019-03-18T14:20:53.897Z,7.69
2019-03-18T14:21:54.512Z,7.87
2019-03-18T14:22:53.904Z,8.39
2019-03-18T14:23:54.090Z,8.34
2019-03-18T14:24:53.839Z,8.32
2019-03-18T14:25:53.854Z,8.42
2019-03-18T14:26:53.822Z,8.47
2019-03-18T14:27:53.757Z,8.59
2019-03-18T14:28:53.748Z,8.74
2019-03-18T14:29:54.035Z,8.63
2019-03-18T14:30:53.953Z,8.63
2019-03-18T14:31:53.678Z,8.78
2019-03-18T14:33:53.738Z,8.71
2019-03-18T14:34:54.303Z,8.71
2019-03-18T14:35:55.630Z,8.92
2019-03-18T14:37:53.565Z,9.50
2019-03-18T14:38:53.525Z,9.65
2019-03-18T14:39:53.887Z,10.14
2019-03-18T14:41:54.064Z,9.93
2019-03-18T14:42:53.669Z,9.85
2019-03-18T14:43:53.718Z,9.90
2019-03-18T14:44:53.585Z,10.12
2019-03-18T14:45:53.459Z,10.23
2019-03-18T14:46:53.377Z,9.96
2019-03-18T14:47:53.740Z,9.90
2019-03-18T14:48:53.336Z,10.02
2019-03-18T14:49:53.319Z,10.01
2019-03-18T14:50:53.312Z,9.94
2019-03-18T14:51:53.280Z,9.94